New City, Illinois
Current Conditions -  °F | °C
As of 2:52 AM on Thursday 27 Nov 2014 (Local Time) from KSPI Reporting Station
Broken Clouds Broken Clouds  
Wind Chill: 13°   Ceiling: 8500
Heat Index: 24°   Visibility: 9mi
Dew Point: 20°   Wind: 12mph
Humidity: 84%   Direction: 320°NW
Pressure: 30.33"   Gusts: NA
Location:  39.7312°N, 89.5322°W
Report Text: KSPI 270852Z AUTO 32010KT 9SM BKN085 M04/M07 A3033 RMK AO2 SLP277 T10441067 53030
Loading
Personal Weather Stations






























Interactive Weather Map New forecast layout! Learn more

10-Day Weather Forecast

Advertisements
Track Severe Weather on mobile